createdAt,value
2018-12-12T00:00:34.629Z,24.47
2018-12-12T00:03:02.967Z,21.03
2018-12-12T00:05:31.299Z,29.30
2018-12-12T00:07:59.641Z,43.57
2018-12-12T00:10:27.975Z,32.73
2018-12-12T00:12:56.302Z,20.07
2018-12-12T00:15:24.637Z,13.97
2018-12-12T00:17:52.975Z,13.77
2018-12-12T00:20:21.305Z,18.70
2018-12-12T00:22:49.640Z,24.60
2018-12-12T00:25:17.970Z,29.00
2018-12-12T00:27:46.297Z,33.73
2018-12-12T00:30:14.669Z,17.93
2018-12-12T00:32:43.333Z,16.50
2018-12-12T00:35:11.659Z,19.17
2018-12-12T00:37:39.997Z,15.97
2018-12-12T00:40:08.579Z,17.80
2018-12-12T00:42:36.904Z,15.70
2018-12-12T00:45:05.238Z,15.93
2018-12-12T00:47:33.565Z,16.07
2018-12-12T00:50:01.906Z,14.37
2018-12-12T00:52:30.236Z,13.00
2018-12-12T00:54:58.588Z,14.47
2018-12-12T00:57:26.922Z,15.90
2018-12-12T00:59:55.261Z,15.30
2018-12-12T01:02:23.606Z,16.93
2018-12-12T01:04:51.924Z,16.00
2018-12-12T01:07:20.260Z,14.83
2018-12-12T01:09:48.584Z,14.93
2018-12-12T01:12:16.929Z,12.47
2018-12-12T01:14:45.261Z,10.63
2018-12-12T01:17:13.600Z,10.57
2018-12-12T01:19:41.940Z,10.13
2018-12-12T01:22:10.275Z,11.13
2018-12-12T01:24:38.626Z,10.20
2018-12-12T01:27:06.957Z,8.77
2018-12-12T01:29:35.284Z,7.77
2018-12-12T01:32:03.612Z,7.97
2018-12-12T01:34:31.937Z,7.10
2018-12-12T01:37:00.265Z,7.70
2018-12-12T01:39:28.580Z,6.67
2018-12-12T01:41:56.900Z,7.20
2018-12-12T01:44:25.229Z,7.77
2018-12-12T01:46:53.567Z,8.93
2018-12-12T01:49:21.889Z,10.93
2018-12-12T01:51:50.222Z,13.00
2018-12-12T01:54:18.550Z,12.40
2018-12-12T01:56:46.873Z,11.13
2018-12-12T01:59:15.193Z,9.27
2018-12-12T02:01:43.517Z,8.33
2018-12-12T02:04:11.853Z,9.33
2018-12-12T02:06:40.177Z,7.53
2018-12-12T02:09:08.499Z,6.77
2018-12-12T02:11:36.829Z,7.30
2018-12-12T02:14:05.147Z,9.23
2018-12-12T02:16:33.478Z,9.93
2018-12-12T02:19:01.811Z,11.30
2018-12-12T02:21:30.155Z,10.87
2018-12-12T02:23:58.478Z,10.23
2018-12-12T02:26:26.811Z,9.37
2018-12-12T02:28:55.135Z,9.83
2018-12-12T02:31:23.460Z,15.87
2018-12-12T02:33:51.785Z,10.30
2018-12-12T02:36:20.110Z,10.03
2018-12-12T02:38:48.437Z,9.20
2018-12-12T02:41:16.753Z,9.20
2018-12-12T02:43:45.082Z,10.00
2018-12-12T02:46:13.413Z,10.60
2018-12-12T02:48:41.748Z,11.13
2018-12-12T02:51:10.101Z,10.80
2018-12-12T02:53:38.433Z,10.03
2018-12-12T02:56:06.772Z,10.00
2018-12-12T02:58:35.101Z,9.90
2018-12-12T03:01:03.468Z,9.57
2018-12-12T03:03:31.787Z,9.93
2018-12-12T03:06:00.114Z,11.30
2018-12-12T03:08:28.452Z,15.10
2018-12-12T03:10:56.784Z,14.57
2018-12-12T03:13:25.101Z,16.80
2018-12-12T03:15:53.441Z,17.03
2018-12-12T03:18:21.781Z,18.33
2018-12-12T03:20:50.126Z,18.27
2018-12-12T03:23:18.462Z,18.30
2018-12-12T03:25:46.799Z,19.57
2018-12-12T03:28:15.127Z,20.83
2018-12-12T03:30:43.463Z,17.83
2018-12-12T03:33:11.804Z,17.07
2018-12-12T03:35:40.124Z,14.70
2018-12-12T03:38:08.454Z,13.67
2018-12-12T03:40:37.040Z,11.57
2018-12-12T03:43:05.377Z,11.20
2018-12-12T03:45:33.713Z,10.07
2018-12-12T03:48:02.038Z,10.33
2018-12-12T03:50:30.366Z,9.27
2018-12-12T03:52:58.984Z,11.13
2018-12-12T03:55:27.314Z,8.90
2018-12-12T03:57:55.640Z,9.10
2018-12-12T04:00:23.977Z,9.03
2018-12-12T04:02:52.625Z,10.37
2018-12-12T04:05:20.955Z,9.73
2018-12-12T04:07:49.285Z,11.40
2018-12-12T04:10:17.617Z,10.93
2018-12-12T04:12:45.960Z,10.20
2018-12-12T04:15:14.291Z,10.60
2018-12-12T04:17:42.616Z,9.67
2018-12-12T04:20:10.966Z,11.23
2018-12-12T04:22:39.304Z,16.00
2018-12-12T04:25:07.638Z,15.83
2018-12-12T04:27:36.932Z,14.27
2018-12-12T04:30:05.253Z,11.20
2018-12-12T04:32:33.583Z,13.33
2018-12-12T04:35:01.910Z,13.63
2018-12-12T04:37:30.242Z,13.43
2018-12-12T04:39:58.570Z,11.97
2018-12-12T04:42:26.890Z,12.67
2018-12-12T04:44:55.229Z,12.33
2018-12-12T04:47:23.555Z,11.77
2018-12-12T04:49:51.921Z,12.93
2018-12-12T04:52:20.217Z,13.97
2018-12-12T04:54:48.561Z,14.73
2018-12-12T04:57:16.890Z,14.47
2018-12-12T04:59:45.231Z,13.63
2018-12-12T05:02:13.552Z,13.87
2018-12-12T05:04:41.891Z,13.60
2018-12-12T05:07:10.223Z,19.70
2018-12-12T05:09:38.561Z,21.43
2018-12-12T05:12:06.894Z,23.13
2018-12-12T05:14:35.269Z,25.30
2018-12-12T05:17:03.580Z,32.17
2018-12-12T05:19:31.921Z,22.47
2018-12-12T05:22:00.256Z,24.43
2018-12-12T05:24:28.586Z,23.97
2018-12-12T05:26:56.920Z,28.33
2018-12-12T05:29:25.260Z,27.90
2018-12-12T05:31:53.589Z,28.30
2018-12-12T05:34:21.918Z,23.93
2018-12-12T05:36:50.253Z,22.97
2018-12-12T05:39:18.576Z,18.20
2018-12-12T05:41:46.907Z,18.73
2018-12-12T05:44:15.241Z,16.13
2018-12-12T05:46:43.579Z,15.00
2018-12-12T05:49:11.905Z,14.50
2018-12-12T05:51:40.545Z,13.47
2018-12-12T05:54:08.887Z,13.97
2018-12-12T05:56:37.216Z,12.73
2018-12-12T05:59:05.561Z,10.60
2018-12-12T06:01:33.942Z,12.03
2018-12-12T06:04:02.250Z,11.10
2018-12-12T06:06:30.618Z,11.70
2018-12-12T06:08:58.935Z,9.77
2018-12-12T06:11:27.266Z,9.27
2018-12-12T06:13:55.598Z,7.13
2018-12-12T06:16:23.927Z,8.07
2018-12-12T06:18:52.258Z,13.73
2018-12-12T06:21:20.583Z,24.63
2018-12-12T06:23:49.200Z,30.73
2018-12-12T06:26:17.553Z,17.70
2018-12-12T06:28:45.891Z,16.83
2018-12-12T06:31:14.229Z,15.00
2018-12-12T06:33:42.579Z,13.23
2018-12-12T06:36:10.919Z,13.93
2018-12-12T06:38:39.570Z,13.93
2018-12-12T06:41:07.906Z,13.77
2018-12-12T06:43:36.344Z,11.50
2018-12-12T06:46:04.674Z,12.40
2018-12-12T06:48:33.012Z,42.13
2018-12-12T06:51:01.332Z,26.93
2018-12-12T06:53:29.673Z,18.90
2018-12-12T06:55:57.999Z,14.77
2018-12-12T06:58:26.335Z,13.60
2018-12-12T07:00:54.665Z,18.63
2018-12-12T07:03:23.000Z,22.47
2018-12-12T07:05:51.334Z,28.77
2018-12-12T07:08:20.039Z,32.80
2018-12-12T07:10:48.727Z,44.97
2018-12-12T07:13:17.063Z,45.73
2018-12-12T07:15:45.418Z,36.00
2018-12-12T07:18:13.759Z,39.30
2018-12-12T07:20:42.081Z,43.60
2018-12-12T07:23:10.421Z,32.63
2018-12-12T07:25:38.780Z,32.57
2018-12-12T07:28:07.122Z,35.30
2018-12-12T07:30:35.774Z,32.60
2018-12-12T07:33:04.099Z,38.60
2018-12-12T07:35:32.432Z,39.23
2018-12-12T07:38:00.767Z,35.47
2018-12-12T07:40:29.099Z,37.73
2018-12-12T07:42:57.436Z,44.03
2018-12-12T07:45:25.781Z,59.97
2018-12-12T07:47:54.103Z,33.80
2018-12-12T07:50:22.434Z,26.93
2018-12-12T07:52:50.758Z,36.27
2018-12-12T07:55:19.095Z,36.37
2018-12-12T07:57:47.753Z,28.10
2018-12-12T08:00:16.084Z,21.30
2018-12-12T08:02:44.440Z,20.33
2018-12-12T08:05:12.774Z,23.10
2018-12-12T08:07:41.112Z,24.93
2018-12-12T08:10:09.499Z,29.33
2018-12-12T08:12:37.812Z,32.77
2018-12-12T08:15:06.135Z,37.20
2018-12-12T08:17:34.483Z,38.13
2018-12-12T08:20:02.820Z,41.57
2018-12-12T08:22:31.150Z,40.73
2018-12-12T08:24:59.486Z,48.07
2018-12-12T08:27:27.851Z,43.20
2018-12-12T08:29:56.172Z,42.87
2018-12-12T08:32:24.500Z,41.43
2018-12-12T08:34:52.823Z,49.13
2018-12-12T08:37:21.150Z,55.13
2018-12-12T08:39:49.485Z,40.47
2018-12-12T08:42:17.845Z,46.00
2018-12-12T08:44:46.170Z,46.97
2018-12-12T08:47:14.858Z,54.57
2018-12-12T08:49:43.221Z,49.03
2018-12-12T08:52:11.550Z,33.30
2018-12-12T08:54:39.888Z,26.53
2018-12-12T08:57:25.378Z,24.43
2018-12-12T08:59:50.954Z,17.00
2018-12-12T09:02:19.760Z,6.20
2018-12-12T09:04:48.076Z,4.80
2018-12-12T09:07:16.173Z,2.63
2018-12-12T09:09:44.495Z,3.20
2018-12-12T09:12:12.815Z,2.40
2018-12-12T09:14:41.226Z,2.23
2018-12-12T09:17:10.013Z,2.23
2018-12-12T09:19:37.979Z,2.60
2018-12-12T09:22:06.309Z,21.53
2018-12-12T09:24:34.656Z,24.37
2018-12-12T09:27:02.968Z,20.13
2018-12-12T09:29:31.295Z,5.47
2018-12-12T09:31:59.622Z,3.77
2018-12-12T09:34:27.935Z,3.50
2018-12-12T09:36:56.261Z,3.30
2018-12-12T09:39:24.583Z,2.63
2018-12-12T09:41:52.896Z,2.47
2018-12-12T09:44:21.227Z,2.30
2018-12-12T09:46:49.561Z,2.30
2018-12-12T09:49:17.896Z,2.40
2018-12-12T09:51:46.212Z,2.80
2018-12-12T09:54:14.529Z,2.70
2018-12-12T09:56:42.849Z,2.73
2018-12-12T09:59:11.172Z,4.00
2018-12-12T10:01:39.502Z,3.30
2018-12-12T10:04:07.805Z,2.87
2018-12-12T10:06:36.122Z,3.10
2018-12-12T10:09:04.448Z,22.90
2018-12-12T10:11:32.791Z,23.93
2018-12-12T10:14:01.131Z,20.97
2018-12-12T10:16:29.469Z,44.10
2018-12-12T10:18:57.794Z,77.30
2018-12-12T10:21:26.135Z,128.40
2018-12-12T10:23:54.480Z,119.47
2018-12-12T10:26:22.809Z,91.03
2018-12-12T10:28:51.157Z,82.80
2018-12-12T10:31:19.487Z,74.40
2018-12-12T10:33:47.833Z,77.47
2018-12-12T10:36:16.172Z,84.27
2018-12-12T10:38:44.519Z,90.00
2018-12-12T10:41:12.847Z,91.43
2018-12-12T10:43:41.763Z,83.13
2018-12-12T10:46:10.098Z,89.33
2018-12-12T10:48:38.438Z,91.60
2018-12-12T10:51:06.759Z,91.63
2018-12-12T10:53:35.105Z,90.70
2018-12-12T10:56:15.901Z,68.33
2018-12-12T10:58:44.799Z,59.97
2018-12-12T11:01:18.689Z,60.60
2018-12-12T11:03:47.026Z,60.03
2018-12-12T11:06:15.348Z,51.30
2018-12-12T11:08:43.684Z,44.73
2018-12-12T11:11:12.021Z,44.50
2018-12-12T11:13:40.345Z,46.67
2018-12-12T11:16:08.713Z,167.23
2018-12-12T11:18:37.033Z,63.70
2018-12-12T11:21:05.353Z,58.67
2018-12-12T11:23:33.691Z,65.93
2018-12-12T11:26:02.049Z,54.83
2018-12-12T11:28:30.375Z,52.83
2018-12-12T11:30:58.709Z,55.07
2018-12-12T11:33:27.040Z,51.00
2018-12-12T11:35:55.374Z,43.50
2018-12-12T11:38:23.702Z,48.33
2018-12-12T11:40:52.041Z,50.80
2018-12-12T11:43:20.377Z,52.70
2018-12-12T11:45:48.721Z,51.53
2018-12-12T11:48:17.056Z,46.57
2018-12-12T11:50:45.383Z,47.60
2018-12-12T11:53:13.713Z,50.50
2018-12-12T11:55:42.053Z,51.27
2018-12-12T11:58:10.392Z,56.83
2018-12-12T12:00:38.717Z,54.10
2018-12-12T12:03:07.043Z,54.00
2018-12-12T12:05:35.387Z,54.00
2018-12-12T12:08:03.716Z,57.23
2018-12-12T12:10:32.060Z,53.87
2018-12-12T12:13:00.388Z,54.13
2018-12-12T12:15:28.731Z,50.57
2018-12-12T12:17:57.064Z,49.30
2018-12-12T12:20:25.388Z,43.03
2018-12-12T12:22:53.723Z,47.37
2018-12-12T12:25:22.081Z,41.43
2018-12-12T12:27:50.418Z,19.60
2018-12-12T12:30:18.746Z,9.57
2018-12-12T12:32:47.068Z,3.97
2018-12-12T12:35:15.377Z,2.70
2018-12-12T12:37:43.709Z,2.20
2018-12-12T12:40:12.036Z,2.10
2018-12-12T12:42:40.347Z,2.10
2018-12-12T12:45:08.671Z,2.07
2018-12-12T12:47:36.986Z,2.00
2018-12-12T12:50:05.783Z,2.17
2018-12-12T12:52:34.098Z,1.90
2018-12-12T12:55:03.327Z,2.03
2018-12-12T12:57:32.427Z,2.80
2018-12-12T13:00:00.744Z,2.90
2018-12-12T13:02:29.055Z,5.13
2018-12-12T13:04:57.381Z,2.40
2018-12-12T13:07:25.691Z,2.20
2018-12-12T13:09:54.011Z,3.93
2018-12-12T13:12:22.328Z,3.70
2018-12-12T13:14:50.639Z,3.27
2018-12-12T13:17:18.966Z,3.47
2018-12-12T13:19:47.304Z,2.97
2018-12-12T13:22:15.647Z,3.27
2018-12-12T13:24:43.961Z,2.90
2018-12-12T13:27:12.288Z,3.33
2018-12-12T13:29:40.836Z,2.70
2018-12-12T13:32:08.948Z,2.80
2018-12-12T13:34:37.273Z,3.17
2018-12-12T13:37:05.608Z,2.83
2018-12-12T13:39:33.923Z,4.70
2018-12-12T13:42:02.245Z,5.77
2018-12-12T13:44:30.576Z,5.70
2018-12-12T13:46:58.906Z,7.80
2018-12-12T13:49:27.234Z,15.83
2018-12-12T13:51:55.565Z,19.83
2018-12-12T13:54:23.881Z,16.47
2018-12-12T13:56:52.217Z,17.83
2018-12-12T13:59:20.557Z,19.97
2018-12-12T14:01:49.450Z,24.40
2018-12-12T14:04:22.574Z,24.93
2018-12-12T14:06:46.116Z,25.03
2018-12-12T14:09:15.168Z,22.17
2018-12-12T14:11:43.513Z,21.93
2018-12-12T14:14:12.075Z,20.00
2018-12-12T14:16:40.170Z,19.40
2018-12-12T14:19:08.499Z,16.10
2018-12-12T14:21:36.846Z,12.67
2018-12-12T14:24:05.181Z,9.00
2018-12-12T14:26:33.720Z,9.40
2018-12-12T14:29:02.052Z,8.10
2018-12-12T14:31:30.380Z,8.70
2018-12-12T14:33:58.717Z,8.70
2018-12-12T14:36:27.054Z,8.23
2018-12-12T14:38:55.370Z,7.80
2018-12-12T14:41:23.711Z,46.97
2018-12-12T14:43:52.047Z,21.50
2018-12-12T14:46:20.410Z,20.90
2018-12-12T14:48:48.737Z,6.47
2018-12-12T14:51:17.062Z,8.23
2018-12-12T14:53:45.402Z,9.30
2018-12-12T14:56:13.777Z,9.63
2018-12-12T14:58:42.121Z,14.50
2018-12-12T15:01:10.478Z,26.47
2018-12-12T15:03:38.824Z,44.73
2018-12-12T15:06:07.144Z,45.90
2018-12-12T15:08:35.492Z,42.83
2018-12-12T15:11:03.830Z,38.67
2018-12-12T15:13:32.175Z,37.37
2018-12-12T15:16:00.804Z,37.87
2018-12-12T15:18:29.154Z,44.07
2018-12-12T15:20:57.486Z,46.37
2018-12-12T15:23:25.869Z,39.50
2018-12-12T15:25:54.210Z,36.47
2018-12-12T15:28:22.566Z,113.53
2018-12-12T15:30:50.909Z,80.07
2018-12-12T15:33:19.248Z,50.43
2018-12-12T15:35:47.597Z,47.77
2018-12-12T15:38:15.998Z,42.80
2018-12-12T15:40:44.640Z,35.30
2018-12-12T15:43:13.577Z,33.80
2018-12-12T15:45:42.000Z,31.57
2018-12-12T15:48:10.693Z,28.27
2018-12-12T15:50:39.032Z,26.47
2018-12-12T15:53:07.472Z,26.10
2018-12-12T15:55:35.801Z,24.90
2018-12-12T15:58:04.140Z,30.60
2018-12-12T16:00:32.473Z,26.17
2018-12-12T16:03:00.841Z,25.57
2018-12-12T16:05:29.160Z,30.93
2018-12-12T16:07:57.550Z,28.37
2018-12-12T16:10:25.905Z,27.20
2018-12-12T16:12:54.218Z,25.10
2018-12-12T16:15:22.562Z,25.07
2018-12-12T16:17:50.888Z,25.53
2018-12-12T16:20:19.458Z,29.27
2018-12-12T16:22:47.583Z,37.30
2018-12-12T16:25:15.932Z,35.70
2018-12-12T16:27:44.288Z,33.07
2018-12-12T16:30:12.691Z,33.03
2018-12-12T16:32:41.012Z,25.27
2018-12-12T16:35:09.327Z,13.80
2018-12-12T16:37:37.659Z,8.80
2018-12-12T16:40:05.983Z,3.50
2018-12-12T16:42:34.300Z,2.93
2018-12-12T16:45:02.627Z,3.47
2018-12-12T16:47:30.954Z,4.53
2018-12-12T16:49:59.313Z,5.87
2018-12-12T16:52:27.634Z,4.17
2018-12-12T16:54:55.960Z,12.90
2018-12-12T16:57:24.287Z,12.67
2018-12-12T16:59:52.641Z,12.33
2018-12-12T17:02:20.969Z,8.30
2018-12-12T17:04:49.299Z,8.53
2018-12-12T17:07:17.639Z,11.17
2018-12-12T17:09:45.991Z,48.40
2018-12-12T17:12:14.406Z,27.67
2018-12-12T17:14:42.676Z,10.77
2018-12-12T17:17:11.057Z,6.63
2018-12-12T17:19:39.382Z,7.00
2018-12-12T17:22:08.672Z,4.87
2018-12-12T17:24:36.989Z,5.00
2018-12-12T17:27:05.346Z,22.13
2018-12-12T17:29:33.826Z,31.03
2018-12-12T17:32:02.125Z,38.73
2018-12-12T17:34:30.483Z,32.77
2018-12-12T17:36:58.819Z,27.00
2018-12-12T17:39:27.154Z,22.77
2018-12-12T17:41:55.483Z,18.93
2018-12-12T17:44:23.825Z,16.63
2018-12-12T17:46:52.164Z,16.27
2018-12-12T17:49:20.506Z,19.03
2018-12-12T17:51:48.933Z,19.17
2018-12-12T17:54:17.301Z,22.13
2018-12-12T17:56:45.643Z,22.30
2018-12-12T17:59:13.978Z,21.80
2018-12-12T18:01:42.304Z,19.60
2018-12-12T18:04:10.650Z,20.17
2018-12-12T18:06:38.997Z,18.87
2018-12-12T18:09:07.385Z,22.73
2018-12-12T18:11:35.762Z,21.63
2018-12-12T18:14:04.103Z,19.23
2018-12-12T18:16:32.436Z,17.83
2018-12-12T18:19:00.802Z,12.87
2018-12-12T18:21:29.194Z,11.47
2018-12-12T18:23:57.517Z,8.30
2018-12-12T18:26:26.115Z,5.27
2018-12-12T18:28:54.569Z,4.90
2018-12-12T18:31:22.879Z,3.67
2018-12-12T18:33:51.217Z,12.40
2018-12-12T18:36:19.653Z,11.33
2018-12-12T18:38:47.993Z,22.07
2018-12-12T18:41:16.329Z,6.27
2018-12-12T18:43:44.670Z,5.60
2018-12-12T18:46:13.018Z,6.10
2018-12-12T18:48:41.371Z,6.07
2018-12-12T18:51:09.669Z,4.73
2018-12-12T18:53:38.260Z,5.00
2018-12-12T18:56:06.598Z,4.80
2018-12-12T18:58:42.606Z,5.20
2018-12-12T19:01:11.418Z,4.80
2018-12-12T19:03:39.759Z,4.83
2018-12-12T19:06:08.085Z,5.03
2018-12-12T19:08:36.434Z,4.80
2018-12-12T19:11:05.099Z,4.10
2018-12-12T19:13:33.417Z,3.80
2018-12-12T19:16:01.792Z,5.47
2018-12-12T19:18:30.124Z,5.83
2018-12-12T19:21:00.168Z,5.63
2018-12-12T19:23:26.782Z,7.03
2018-12-12T19:25:55.127Z,14.00
2018-12-12T19:28:23.470Z,27.53
2018-12-12T19:30:51.841Z,11.47
2018-12-12T19:33:20.542Z,11.90
2018-12-12T19:35:48.880Z,10.23
2018-12-12T19:38:17.199Z,10.10
2018-12-12T19:40:45.597Z,10.07
2018-12-12T19:43:14.095Z,17.30
2018-12-12T19:45:42.421Z,15.87
2018-12-12T19:48:10.759Z,13.37
2018-12-12T19:50:39.097Z,12.43
2018-12-12T19:53:07.439Z,14.80
2018-12-12T19:55:36.030Z,27.37
2018-12-12T19:58:05.054Z,28.10
2018-12-12T20:00:33.404Z,22.30
2018-12-12T20:03:02.082Z,21.47
2018-12-12T20:05:30.784Z,24.53
2018-12-12T20:07:59.289Z,26.33
2018-12-12T20:10:27.689Z,25.47
2018-12-12T20:12:56.245Z,24.60
2018-12-12T20:15:30.586Z,35.13
2018-12-12T20:17:58.927Z,35.83
2018-12-12T20:20:27.256Z,23.80
2018-12-12T20:22:55.596Z,25.17
2018-12-12T20:25:23.939Z,75.20
2018-12-12T20:27:52.274Z,35.07
2018-12-12T20:30:20.609Z,28.70
2018-12-12T20:32:48.991Z,31.50
2018-12-12T20:35:17.322Z,30.33
2018-12-12T20:37:45.659Z,36.70
2018-12-12T20:40:13.989Z,40.33
2018-12-12T20:42:42.327Z,37.30
2018-12-12T20:45:10.659Z,51.53
2018-12-12T20:47:39.118Z,44.80
2018-12-12T20:50:07.461Z,55.83
2018-12-12T20:52:35.806Z,20.47
2018-12-12T20:55:04.156Z,21.53
2018-12-12T20:57:32.671Z,17.27
2018-12-12T21:00:01.357Z,7.50
2018-12-12T21:02:29.392Z,3.83
2018-12-12T21:04:58.871Z,4.30
2018-12-12T21:07:27.198Z,4.00
2018-12-12T21:09:55.841Z,4.30
2018-12-12T21:12:25.489Z,4.57
2018-12-12T21:14:53.575Z,5.03
2018-12-12T21:17:22.130Z,5.10
2018-12-12T21:22:49.101Z,6.30
2018-12-12T21:25:20.806Z,7.30
2018-12-12T21:27:49.134Z,7.00
2018-12-12T21:30:17.522Z,14.83
2018-12-12T21:32:45.832Z,7.20
2018-12-12T21:35:14.156Z,5.23
2018-12-12T21:37:42.474Z,4.50
2018-12-12T21:40:10.804Z,4.97
2018-12-12T21:42:39.170Z,4.50
2018-12-12T21:45:07.494Z,4.53
2018-12-12T21:47:35.801Z,4.20
2018-12-12T21:50:04.137Z,3.40
2018-12-12T21:52:32.485Z,3.43
2018-12-12T21:55:00.825Z,3.30
2018-12-12T21:57:29.138Z,3.60
2018-12-12T21:59:57.460Z,3.23
2018-12-12T22:02:25.784Z,4.87
2018-12-12T22:04:54.114Z,6.63
2018-12-12T22:07:22.465Z,6.07
2018-12-12T22:09:50.788Z,5.90
2018-12-12T22:12:19.164Z,6.50
2018-12-12T22:14:47.488Z,6.00
2018-12-12T22:17:15.827Z,11.03
2018-12-12T22:19:44.138Z,6.40
2018-12-12T22:22:12.459Z,6.57
2018-12-12T22:24:40.788Z,17.27
2018-12-12T22:27:09.107Z,4.60
2018-12-12T22:29:37.414Z,3.53
2018-12-12T22:32:05.730Z,3.47
2018-12-12T22:34:34.070Z,2.73
2018-12-12T22:37:02.392Z,3.00
2018-12-12T22:39:30.718Z,3.10
2018-12-12T22:41:59.035Z,3.43
2018-12-12T22:44:27.363Z,2.97
2018-12-12T22:46:55.681Z,3.17
2018-12-12T22:49:24.002Z,3.10
2018-12-12T22:51:52.317Z,3.30
2018-12-12T22:54:20.628Z,3.87
2018-12-12T22:56:48.964Z,3.80
2018-12-12T22:59:17.287Z,3.33
2018-12-12T23:01:45.604Z,3.40
2018-12-12T23:04:13.921Z,4.10
2018-12-12T23:06:42.245Z,3.50
2018-12-12T23:09:10.566Z,3.33
2018-12-12T23:11:38.881Z,3.13
2018-12-12T23:14:07.218Z,3.53
2018-12-12T23:16:35.543Z,2.87
2018-12-12T23:19:03.857Z,2.60
2018-12-12T23:21:32.180Z,2.77
2018-12-12T23:24:00.495Z,2.30
2018-12-12T23:26:28.823Z,2.10
2018-12-12T23:28:57.143Z,2.33
2018-12-12T23:31:25.458Z,2.50
2018-12-12T23:33:54.427Z,2.20
2018-12-12T23:36:26.944Z,2.50
2018-12-12T23:38:51.311Z,2.70
2018-12-12T23:41:19.631Z,2.83
2018-12-12T23:43:47.969Z,2.37
2018-12-12T23:46:16.313Z,2.83
2018-12-12T23:48:44.608Z,2.33
2018-12-12T23:51:12.925Z,2.70
2018-12-12T23:53:42.207Z,2.87
2018-12-12T23:56:10.829Z,2.70
2018-12-12T23:58:39.149Z,2.70
